Reliance, Texas
Current Conditions -  °F | °C
As of 6:53 AM on Saturday 20 Dec 2014 (Local Time) from KCLL Reporting Station
Overcast Overcast  
Wind Chill: 45°   Ceiling: 700
Heat Index: 49°   Visibility: 7mi
Dew Point: 47°   Wind: 8mph
Humidity: 93%   Direction: 350°N
Pressure: 30.19"   Gusts: NA
Location:  30.6361°N, 96.3666°W
Report Text: KCLL 201253Z AUTO 35007KT 7SM OVC007 09/08 A3019 RMK AO2 SLP223 T00940083
Loading
Personal Weather Stations






























Interactive Weather Map New forecast layout! Learn more

10-Day Weather Forecast

Advertisements
Track Severe Weather on mobile